sensor_id;sensor_type;location;lat;lon;timestamp;pressure;altitude;pressure_sealevel;temperature;humidity
35202;BME280;20553;47.544;7.586;2022-07-10T00:00:36;98845.03;;;16.74;79.67
35202;BME280;20553;47.544;7.586;2022-07-10T00:05:40;98863.09;;;16.97;78.58
35202;BME280;20553;47.544;7.586;2022-07-10T00:10:44;98861.59;;;17.05;79.37
35202;BME280;20553;47.544;7.586;2022-07-10T00:15:50;98868.84;;;16.93;80.17
35202;BME280;20553;47.544;7.586;2022-07-10T00:20:54;98862.81;;;16.89;81.01
35202;BME280;20553;47.544;7.586;2022-07-10T00:25:58;98858.59;;;16.85;82.25
35202;BME280;20553;47.544;7.586;2022-07-10T00:31:04;98857.44;;;16.76;83.83
35202;BME280;20553;47.544;7.586;2022-07-10T00:36:09;98852.69;;;16.80;84.13
35202;BME280;20553;47.544;7.586;2022-07-10T00:41:13;98847.25;;;16.80;83.69
35202;BME280;20553;47.544;7.586;2022-07-10T00:46:19;98855.38;;;16.80;84.64
35202;BME280;20553;47.544;7.586;2022-07-10T00:51:25;98864.91;;;16.61;86.31
35202;BME280;20553;47.544;7.586;2022-07-10T00:56:29;98868.00;;;16.44;87.94
35202;BME280;20553;47.544;7.586;2022-07-10T01:01:35;98858.16;;;16.43;89.51
35202;BME280;20553;47.544;7.586;2022-07-10T01:06:40;98862.31;;;16.36;90.65
35202;BME280;20553;47.544;7.586;2022-07-10T01:11:44;98863.53;;;16.32;91.94
35202;BME280;20553;47.544;7.586;2022-07-10T01:16:50;98869.72;;;16.21;93.20
35202;BME280;20553;47.544;7.586;2022-07-10T01:21:55;98862.22;;;16.13;93.93
35202;BME280;20553;47.544;7.586;2022-07-10T01:26:59;98857.03;;;16.10;95.43
35202;BME280;20553;47.544;7.586;2022-07-10T01:32:04;98861.66;;;16.08;96.05
35202;BME280;20553;47.544;7.586;2022-07-10T01:37:10;98857.81;;;15.99;97.12
35202;BME280;20553;47.544;7.586;2022-07-10T01:42:14;98869.69;;;15.97;97.32
35202;BME280;20553;47.544;7.586;2022-07-10T01:47:18;98868.00;;;15.96;97.97
35202;BME280;20553;47.544;7.586;2022-07-10T01:52:23;98867.91;;;15.84;98.91
35202;BME280;20553;47.544;7.586;2022-07-10T01:57:27;98863.50;;;15.83;99.16
35202;BME280;20553;47.544;7.586;2022-07-10T02:02:32;98870.59;;;15.84;99.21
35202;BME280;20553;47.544;7.586;2022-07-10T02:07:37;98875.88;;;15.73;99.81
35202;BME280;20553;47.544;7.586;2022-07-10T02:12:41;98883.97;;;15.73;100.00
35202;BME280;20553;47.544;7.586;2022-07-10T02:17:45;98882.06;;;15.62;100.00
35202;BME280;20553;47.544;7.586;2022-07-10T02:22:51;98881.84;;;15.52;100.00
35202;BME280;20553;47.544;7.586;2022-07-10T02:27:55;98883.06;;;15.48;100.00
35202;BME280;20553;47.544;7.586;2022-07-10T02:32:59;98879.50;;;15.61;100.00
35202;BME280;20553;47.544;7.586;2022-07-10T02:38:04;98867.81;;;15.47;100.00
35202;BME280;20553;47.544;7.586;2022-07-10T02:43:08;98868.69;;;15.48;100.00
35202;BME280;20553;47.544;7.586;2022-07-10T02:48:14;98876.13;;;15.44;100.00
35202;BME280;20553;47.544;7.586;2022-07-10T02:53:19;98876.69;;;15.36;100.00
35202;BME280;20553;47.544;7.586;2022-07-10T02:58:25;98865.03;;;15.23;100.00
35202;BME280;20553;47.544;7.586;2022-07-10T03:03:30;98861.81;;;15.31;100.00
35202;BME280;20553;47.544;7.586;2022-07-10T03:08:35;98869.44;;;15.24;100.00
35202;BME280;20553;47.544;7.586;2022-07-10T03:13:40;98873.97;;;15.11;100.00
35202;BME280;20553;47.544;7.586;2022-07-10T03:18:44;98867.84;;;14.96;100.00
35202;BME280;20553;47.544;7.586;2022-07-10T03:23:50;98861.22;;;14.87;100.00
35202;BME280;20553;47.544;7.586;2022-07-10T03:28:54;98867.34;;;14.76;100.00
35202;BME280;20553;47.544;7.586;2022-07-10T03:33:58;98859.25;;;14.63;100.00
35202;BME280;20553;47.544;7.586;2022-07-10T03:39:04;98855.69;;;14.63;100.00
35202;BME280;20553;47.544;7.586;2022-07-10T03:44:08;98852.47;;;14.71;100.00
35202;BME280;20553;47.544;7.586;2022-07-10T03:49:12;98856.97;;;14.70;100.00
35202;BME280;20553;47.544;7.586;2022-07-10T03:54:17;98869.75;;;14.81;100.00
35202;BME280;20553;47.544;7.586;2022-07-10T03:59:21;98871.69;;;14.92;100.00
35202;BME280;20553;47.544;7.586;2022-07-10T04:04:26;98864.03;;;14.85;100.00
35202;BME280;20553;47.544;7.586;2022-07-10T04:09:32;98858.44;;;14.89;100.00
35202;BME280;20553;47.544;7.586;2022-07-10T04:14:36;98861.66;;;15.07;100.00
35202;BME280;20553;47.544;7.586;2022-07-10T04:19:40;98857.78;;;15.24;100.00
35202;BME280;20553;47.544;7.586;2022-07-10T04:24:45;98862.13;;;15.26;100.00
35202;BME280;20553;47.544;7.586;2022-07-10T04:29:52;98862.66;;;15.31;100.00
35202;BME280;20553;47.544;7.586;2022-07-10T04:34:59;98873.75;;;15.39;100.00
35202;BME280;20553;47.544;7.586;2022-07-10T04:40:09;98857.66;;;15.51;100.00
35202;BME280;20553;47.544;7.586;2022-07-10T04:45:13;98867.66;;;15.74;100.00
35202;BME280;20553;47.544;7.586;2022-07-10T04:50:17;98866.72;;;15.75;100.00
35202;BME280;20553;47.544;7.586;2022-07-10T04:55:23;98868.84;;;15.96;100.00
35202;BME280;20553;47.544;7.586;2022-07-10T05:00:28;98875.69;;;16.26;100.00
35202;BME280;20553;47.544;7.586;2022-07-10T05:05:32;98875.84;;;16.95;95.06
35202;BME280;20553;47.544;7.586;2022-07-10T05:10:37;98874.91;;;17.08;93.73
35202;BME280;20553;47.544;7.586;2022-07-10T05:15:45;98874.66;;;17.11;92.84
35202;BME280;20553;47.544;7.586;2022-07-10T05:20:50;98876.63;;;16.97;94.44
35202;BME280;20553;47.544;7.586;2022-07-10T05:25:55;98881.19;;;16.84;95.71
35202;BME280;20553;47.544;7.586;2022-07-10T05:30:59;98884.97;;;16.94;95.45
35202;BME280;20553;47.544;7.586;2022-07-10T05:36:05;98886.09;;;17.14;92.84
35202;BME280;20553;47.544;7.586;2022-07-10T05:41:10;98884.88;;;17.07;93.67
35202;BME280;20553;47.544;7.586;2022-07-10T05:46:14;98891.00;;;16.98;93.74
35202;BME280;20553;47.544;7.586;2022-07-10T05:51:19;98885.47;;;16.75;95.75
35202;BME280;20553;47.544;7.586;2022-07-10T05:56:45;98898.50;;;16.94;94.80
35202;BME280;20553;47.544;7.586;2022-07-10T06:01:50;98892.81;;;17.44;92.58
35202;BME280;20553;47.544;7.586;2022-07-10T06:06:54;98903.34;;;17.94;88.17
35202;BME280;20553;47.544;7.586;2022-07-10T06:12:00;98905.53;;;18.12;86.75
35202;BME280;20553;47.544;7.586;2022-07-10T06:17:04;98903.25;;;18.39;84.71
35202;BME280;20553;47.544;7.586;2022-07-10T06:22:09;98902.59;;;18.91;80.84
35202;BME280;20553;47.544;7.586;2022-07-10T06:27:31;98897.94;;;19.66;75.00
35202;BME280;20553;47.544;7.586;2022-07-10T06:32:36;98906.19;;;20.16;71.27
35202;BME280;20553;47.544;7.586;2022-07-10T06:37:40;98906.41;;;20.63;68.62
35202;BME280;20553;47.544;7.586;2022-07-10T06:42:45;98910.91;;;21.80;62.47
35202;BME280;20553;47.544;7.586;2022-07-10T06:47:54;98919.41;;;21.67;61.47
35202;BME280;20553;47.544;7.586;2022-07-10T06:53:02;98914.31;;;21.35;62.89
35202;BME280;20553;47.544;7.586;2022-07-10T06:58:08;98916.72;;;21.28;63.42
35202;BME280;20553;47.544;7.586;2022-07-10T07:03:12;98916.59;;;21.20;63.05
35202;BME280;20553;47.544;7.586;2022-07-10T07:08:17;98926.91;;;21.26;63.50
35202;BME280;20553;47.544;7.586;2022-07-10T07:13:24;98924.97;;;21.76;61.66
35202;BME280;20553;47.544;7.586;2022-07-10T07:18:28;98914.44;;;23.28;54.59
35202;BME280;20553;47.544;7.586;2022-07-10T07:23:38;98918.81;;;24.60;50.22
35202;BME280;20553;47.544;7.586;2022-07-10T07:28:43;98916.97;;;25.10;47.81
35202;BME280;20553;47.544;7.586;2022-07-10T07:33:47;98916.13;;;25.09;46.39
35202;BME280;20553;47.544;7.586;2022-07-10T07:38:52;98915.31;;;23.81;48.93
35202;BME280;20553;47.544;7.586;2022-07-10T07:43:57;98911.38;;;23.31;50.41
35202;BME280;20553;47.544;7.586;2022-07-10T07:49:01;98927.88;;;23.03;50.79
35202;BME280;20553;47.544;7.586;2022-07-10T07:54:05;98915.84;;;23.32;51.05
35202;BME280;20553;47.544;7.586;2022-07-10T07:59:11;98917.84;;;24.35;47.55
35202;BME280;20553;47.544;7.586;2022-07-10T08:04:16;98913.34;;;24.68;46.69
35202;BME280;20553;47.544;7.586;2022-07-10T08:09:20;98912.63;;;26.06;42.81
35202;BME280;20553;47.544;7.586;2022-07-10T08:14:26;98904.66;;;25.39;43.75
35202;BME280;20553;47.544;7.586;2022-07-10T08:19:30;98906.34;;;26.68;41.20
35202;BME280;20553;47.544;7.586;2022-07-10T08:24:35;98896.69;;;27.95;38.10
35202;BME280;20553;47.544;7.586;2022-07-10T08:29:40;98891.50;;;27.01;39.48
35202;BME280;20553;47.544;7.586;2022-07-10T08:34:44;98891.06;;;27.35;39.96
35202;BME280;20553;47.544;7.586;2022-07-10T08:39:48;98894.59;;;29.00;35.54
35202;BME280;20553;47.544;7.586;2022-07-10T08:44:57;98888.88;;;27.07;39.30
35202;BME280;20553;47.544;7.586;2022-07-10T08:50:02;98883.56;;;25.56;42.45
35202;BME280;20553;47.544;7.586;2022-07-10T08:55:06;98889.94;;;26.44;40.75
35202;BME280;20553;47.544;7.586;2022-07-10T09:00:12;98880.69;;;26.99;39.88
35202;BME280;20553;47.544;7.586;2022-07-10T09:05:17;98885.56;;;29.84;34.33
35202;BME280;20553;47.544;7.586;2022-07-10T09:10:24;98877.63;;;30.03;34.11
35202;BME280;20553;47.544;7.586;2022-07-10T09:15:31;98880.09;;;29.91;34.19
35202;BME280;20553;47.544;7.586;2022-07-10T09:20:37;98875.91;;;31.65;31.53
35202;BME280;20553;47.544;7.586;2022-07-10T09:25:42;98881.00;;;31.88;30.79
35202;BME280;20553;47.544;7.586;2022-07-10T09:30:48;98876.06;;;32.94;28.71
35202;BME280;20553;47.544;7.586;2022-07-10T09:36:11;98866.25;;;31.88;29.73
35202;BME280;20553;47.544;7.586;2022-07-10T09:41:17;98866.78;;;28.43;35.51
35202;BME280;20553;47.544;7.586;2022-07-10T09:46:25;98864.41;;;31.21;30.99
35202;BME280;20553;47.544;7.586;2022-07-10T09:51:30;98860.16;;;33.65;27.43
35202;BME280;20553;47.544;7.586;2022-07-10T09:56:41;98855.94;;;35.16;25.17
35202;BME280;20553;47.544;7.586;2022-07-10T10:01:48;98858.31;;;34.40;24.80
35202;BME280;20553;47.544;7.586;2022-07-10T10:06:56;98847.72;;;33.49;26.88
35202;BME280;20553;47.544;7.586;2022-07-10T10:12:05;98845.72;;;33.82;25.70
35202;BME280;20553;47.544;7.586;2022-07-10T10:17:13;98837.66;;;35.08;24.11
35202;BME280;20553;47.544;7.586;2022-07-10T10:22:21;98838.94;;;35.48;23.73
35202;BME280;20553;47.544;7.586;2022-07-10T10:27:26;98830.69;;;36.00;23.34
35202;BME280;20553;47.544;7.586;2022-07-10T10:32:32;98827.78;;;36.07;22.87
35202;BME280;20553;47.544;7.586;2022-07-10T10:37:38;98830.78;;;36.58;21.99
35202;BME280;20553;47.544;7.586;2022-07-10T10:42:44;98828.00;;;36.58;21.80
35202;BME280;20553;47.544;7.586;2022-07-10T10:47:59;98818.56;;;37.56;20.75
35202;BME280;20553;47.544;7.586;2022-07-10T10:53:24;98821.59;;;38.10;20.26
35202;BME280;20553;47.544;7.586;2022-07-10T10:58:36;98814.59;;;38.79;19.42
35202;BME280;20553;47.544;7.586;2022-07-10T11:04:15;98809.56;;;39.46;18.88
35202;BME280;20553;47.544;7.586;2022-07-10T11:09:27;98798.22;;;39.25;19.07
35202;BME280;20553;47.544;7.586;2022-07-10T11:14:33;98791.84;;;39.03;18.80
35202;BME280;20553;47.544;7.586;2022-07-10T11:19:41;98787.06;;;39.73;18.08
35202;BME280;20553;47.544;7.586;2022-07-10T11:25:00;98784.28;;;38.71;18.92
35202;BME280;20553;47.544;7.586;2022-07-10T11:30:07;98781.94;;;40.13;17.32
35202;BME280;20553;47.544;7.586;2022-07-10T11:35:14;98775.44;;;39.97;17.51
35202;BME280;20553;47.544;7.586;2022-07-10T11:40:19;98781.91;;;41.48;16.48
35202;BME280;20553;47.544;7.586;2022-07-10T11:45:26;98767.13;;;40.23;17.62
35202;BME280;20553;47.544;7.586;2022-07-10T11:50:37;98773.06;;;39.30;17.84
35202;BME280;20553;47.544;7.586;2022-07-10T11:55:42;98773.63;;;37.40;20.21
35202;BME280;20553;47.544;7.586;2022-07-10T12:00:57;98774.63;;;40.07;17.02
35202;BME280;20553;47.544;7.586;2022-07-10T12:06:05;98766.88;;;40.29;15.97
35202;BME280;20553;47.544;7.586;2022-07-10T12:11:13;98758.72;;;39.64;17.04
35202;BME280;20553;47.544;7.586;2022-07-10T12:16:18;98762.97;;;39.35;17.54
35202;BME280;20553;47.544;7.586;2022-07-10T12:21:24;98760.44;;;39.71;17.34
35202;BME280;20553;47.544;7.586;2022-07-10T12:26:31;98763.66;;;41.04;16.43
35202;BME280;20553;47.544;7.586;2022-07-10T12:31:37;98766.97;;;40.55;16.06
35202;BME280;20553;47.544;7.586;2022-07-10T12:36:45;98754.13;;;39.48;15.93
35202;BME280;20553;47.544;7.586;2022-07-10T12:42:00;98771.16;;;39.84;14.62
35202;BME280;20553;47.544;7.586;2022-07-10T12:47:06;98758.00;;;41.51;13.69
35202;BME280;20553;47.544;7.586;2022-07-10T12:52:24;98757.97;;;42.42;13.34
35202;BME280;20553;47.544;7.586;2022-07-10T12:57:45;98757.47;;;41.43;12.67
35202;BME280;20553;47.544;7.586;2022-07-10T13:03:10;98756.03;;;41.56;12.50
35202;BME280;20553;47.544;7.586;2022-07-10T13:08:44;98748.75;;;41.14;12.71
35202;BME280;20553;47.544;7.586;2022-07-10T13:13:49;98746.50;;;41.11;12.37
35202;BME280;20553;47.544;7.586;2022-07-10T13:18:53;98745.53;;;40.18;12.04
35202;BME280;20553;47.544;7.586;2022-07-10T13:23:59;98746.19;;;40.71;12.06
35202;BME280;20553;47.544;7.586;2022-07-10T13:29:04;98747.63;;;41.15;12.04
35202;BME280;20553;47.544;7.586;2022-07-10T13:34:08;98739.47;;;40.78;12.57
35202;BME280;20553;47.544;7.586;2022-07-10T13:39:14;98745.81;;;40.32;12.10
35202;BME280;20553;47.544;7.586;2022-07-10T13:44:18;98736.00;;;40.24;12.77
35202;BME280;20553;47.544;7.586;2022-07-10T13:49:22;98746.19;;;41.38;12.12
35202;BME280;20553;47.544;7.586;2022-07-10T13:54:32;98741.81;;;39.54;14.02
35202;BME280;20553;47.544;7.586;2022-07-10T13:59:36;98744.56;;;40.91;13.63
35202;BME280;20553;47.544;7.586;2022-07-10T14:04:40;98733.59;;;39.95;13.72
35202;BME280;20553;47.544;7.586;2022-07-10T14:09:46;98734.94;;;40.51;13.78
35202;BME280;20553;47.544;7.586;2022-07-10T14:14:50;98726.28;;;39.89;14.61
35202;BME280;20553;47.544;7.586;2022-07-10T14:19:54;98741.31;;;38.87;15.16
35202;BME280;20553;47.544;7.586;2022-07-10T14:25:00;98723.47;;;39.31;14.97
35202;BME280;20553;47.544;7.586;2022-07-10T14:30:05;98739.44;;;40.42;14.01
35202;BME280;20553;47.544;7.586;2022-07-10T14:35:10;98737.50;;;40.73;14.13
35202;BME280;20553;47.544;7.586;2022-07-10T14:40:19;98741.72;;;41.42;14.26
35202;BME280;20553;47.544;7.586;2022-07-10T14:45:28;98734.22;;;41.98;13.18
35202;BME280;20553;47.544;7.586;2022-07-10T14:50:52;98726.22;;;41.50;13.41
35202;BME280;20553;47.544;7.586;2022-07-10T14:55:57;98733.00;;;40.82;13.69
35202;BME280;20553;47.544;7.586;2022-07-10T15:01:01;98727.66;;;41.22;14.04
35202;BME280;20553;47.544;7.586;2022-07-10T15:06:06;98730.47;;;41.27;14.28
35202;BME280;20553;47.544;7.586;2022-07-10T15:11:12;98719.78;;;40.78;14.51
35202;BME280;20553;47.544;7.586;2022-07-10T15:16:16;98718.97;;;40.82;14.47
35202;BME280;20553;47.544;7.586;2022-07-10T15:21:20;98718.06;;;41.54;13.63
35202;BME280;20553;47.544;7.586;2022-07-10T15:26:27;98724.78;;;40.29;14.04
35202;BME280;20553;47.544;7.586;2022-07-10T15:31:31;98713.31;;;41.44;13.37
35202;BME280;20553;47.544;7.586;2022-07-10T15:36:35;98721.28;;;39.06;14.74
35202;BME280;20553;47.544;7.586;2022-07-10T15:41:41;98714.31;;;37.94;15.41
35202;BME280;20553;47.544;7.586;2022-07-10T15:46:48;98695.59;;;37.56;15.84
35202;BME280;20553;47.544;7.586;2022-07-10T15:51:53;98704.22;;;37.15;16.29
35202;BME280;20553;47.544;7.586;2022-07-10T15:56:59;98705.88;;;36.77;16.75
35202;BME280;20553;47.544;7.586;2022-07-10T16:02:04;98706.03;;;35.84;17.85
35202;BME280;20553;47.544;7.586;2022-07-10T16:07:09;98694.72;;;34.79;18.08
35202;BME280;20553;47.544;7.586;2022-07-10T16:12:15;98702.84;;;35.04;17.80
35202;BME280;20553;47.544;7.586;2022-07-10T16:17:19;98703.94;;;35.27;18.15
35202;BME280;20553;47.544;7.586;2022-07-10T16:22:23;98697.50;;;34.91;18.48
35202;BME280;20553;47.544;7.586;2022-07-10T16:27:29;98696.06;;;34.46;19.23
35202;BME280;20553;47.544;7.586;2022-07-10T16:32:33;98702.56;;;33.79;19.93
35202;BME280;20553;47.544;7.586;2022-07-10T16:37:37;98707.16;;;33.67;19.67
35202;BME280;20553;47.544;7.586;2022-07-10T16:42:43;98706.47;;;33.53;19.92
35202;BME280;20553;47.544;7.586;2022-07-10T16:47:47;98704.06;;;31.99;21.53
35202;BME280;20553;47.544;7.586;2022-07-10T16:52:53;98707.47;;;31.49;21.51
35202;BME280;20553;47.544;7.586;2022-07-10T16:58:00;98710.06;;;31.30;21.97
35202;BME280;20553;47.544;7.586;2022-07-10T17:03:05;98709.72;;;32.24;21.34
35202;BME280;20553;47.544;7.586;2022-07-10T17:08:14;98714.97;;;32.32;20.71
35202;BME280;20553;47.544;7.586;2022-07-10T17:13:20;98701.34;;;32.88;20.12
35202;BME280;20553;47.544;7.586;2022-07-10T17:18:26;98714.03;;;33.02;19.92
35202;BME280;20553;47.544;7.586;2022-07-10T17:23:31;98712.13;;;32.13;20.48
35202;BME280;20553;47.544;7.586;2022-07-10T17:28:36;98718.97;;;30.32;22.23
35202;BME280;20553;47.544;7.586;2022-07-10T17:33:40;98728.38;;;29.13;23.97
35202;BME280;20553;47.544;7.586;2022-07-10T17:38:45;98717.59;;;26.69;26.86
35202;BME280;20553;47.544;7.586;2022-07-10T17:43:52;98729.56;;;25.03;29.04
35202;BME280;20553;47.544;7.586;2022-07-10T17:48:56;98728.06;;;24.10;30.32
35202;BME280;20553;47.544;7.586;2022-07-10T17:54:01;98733.72;;;23.65;30.54
35202;BME280;20553;47.544;7.586;2022-07-10T17:59:07;98739.81;;;23.51;30.09
35202;BME280;20553;47.544;7.586;2022-07-10T18:04:11;98739.53;;;23.28;29.24
35202;BME280;20553;47.544;7.586;2022-07-10T18:09:15;98737.81;;;23.01;29.73
35202;BME280;20553;47.544;7.586;2022-07-10T18:14:21;98744.03;;;22.85;30.71
35202;BME280;20553;47.544;7.586;2022-07-10T18:19:25;98748.59;;;22.58;31.14
35202;BME280;20553;47.544;7.586;2022-07-10T18:24:29;98752.59;;;22.46;31.28
35202;BME280;20553;47.544;7.586;2022-07-10T18:29:34;98755.38;;;22.18;32.50
35202;BME280;20553;47.544;7.586;2022-07-10T18:34:38;98752.06;;;21.78;33.20
35202;BME280;20553;47.544;7.586;2022-07-10T18:39:43;98749.56;;;21.85;34.12
35202;BME280;20553;47.544;7.586;2022-07-10T18:44:49;98751.31;;;21.58;35.26
35202;BME280;20553;47.544;7.586;2022-07-10T18:49:53;98759.25;;;21.42;36.25
35202;BME280;20553;47.544;7.586;2022-07-10T18:54:59;98770.19;;;21.32;36.61
35202;BME280;20553;47.544;7.586;2022-07-10T19:00:06;98772.56;;;21.07;37.63
35202;BME280;20553;47.544;7.586;2022-07-10T19:05:10;98770.00;;;20.96;38.45
35202;BME280;20553;47.544;7.586;2022-07-10T19:10:14;98780.50;;;20.71;38.52
35202;BME280;20553;47.544;7.586;2022-07-10T19:15:20;98778.91;;;20.39;39.56
35202;BME280;20553;47.544;7.586;2022-07-10T19:20:25;98783.94;;;20.24;39.96
35202;BME280;20553;47.544;7.586;2022-07-10T19:25:31;98796.22;;;19.99;41.13
35202;BME280;20553;47.544;7.586;2022-07-10T19:30:40;98784.75;;;19.86;41.14
35202;BME280;20553;47.544;7.586;2022-07-10T19:35:44;98794.41;;;19.69;41.72
35202;BME280;20553;47.544;7.586;2022-07-10T19:40:48;98789.25;;;19.76;41.52
35202;BME280;20553;47.544;7.586;2022-07-10T19:45:54;98794.59;;;19.46;42.30
35202;BME280;20553;47.544;7.586;2022-07-10T19:50:58;98804.47;;;19.47;42.50
35202;BME280;20553;47.544;7.586;2022-07-10T19:56:03;98806.50;;;19.24;43.08
35202;BME280;20553;47.544;7.586;2022-07-10T20:01:09;98799.56;;;19.10;43.50
35202;BME280;20553;47.544;7.586;2022-07-10T20:06:13;98808.97;;;19.06;43.34
35202;BME280;20553;47.544;7.586;2022-07-10T20:11:18;98813.69;;;19.04;43.43
35202;BME280;20553;47.544;7.586;2022-07-10T20:16:25;98822.16;;;18.90;44.22
35202;BME280;20553;47.544;7.586;2022-07-10T20:21:29;98819.75;;;18.75;44.31
35202;BME280;20553;47.544;7.586;2022-07-10T20:26:34;98817.75;;;18.77;44.05
35202;BME280;20553;47.544;7.586;2022-07-10T20:31:40;98822.13;;;18.69;44.51
35202;BME280;20553;47.544;7.586;2022-07-10T20:36:44;98828.00;;;18.53;45.24
35202;BME280;20553;47.544;7.586;2022-07-10T20:42:06;98818.94;;;18.31;45.77
35202;BME280;20553;47.544;7.586;2022-07-10T20:47:13;98833.66;;;18.17;46.43
35202;BME280;20553;47.544;7.586;2022-07-10T20:52:17;98839.97;;;18.06;46.79
35202;BME280;20553;47.544;7.586;2022-07-10T20:57:29;98837.03;;;17.75;47.62
35202;BME280;20553;47.544;7.586;2022-07-10T21:02:35;98845.16;;;17.75;47.60
35202;BME280;20553;47.544;7.586;2022-07-10T21:07:39;98852.06;;;17.57;48.79
35202;BME280;20553;47.544;7.586;2022-07-10T21:12:43;98853.06;;;17.56;48.93
35202;BME280;20553;47.544;7.586;2022-07-10T21:17:49;98862.41;;;17.52;49.19
35202;BME280;20553;47.544;7.586;2022-07-10T21:22:53;98869.81;;;17.38;49.66
35202;BME280;20553;47.544;7.586;2022-07-10T21:27:57;98871.69;;;17.02;51.66
35202;BME280;20553;47.544;7.586;2022-07-10T21:33:03;98873.06;;;16.84;52.94
35202;BME280;20553;47.544;7.586;2022-07-10T21:38:08;98873.75;;;16.63;54.44
35202;BME280;20553;47.544;7.586;2022-07-10T21:43:12;98870.38;;;16.48;55.31
35202;BME280;20553;47.544;7.586;2022-07-10T21:48:17;98871.75;;;16.30;57.01
35202;BME280;20553;47.544;7.586;2022-07-10T21:53:21;98878.59;;;16.47;58.12
35202;BME280;20553;47.544;7.586;2022-07-10T21:58:26;98873.31;;;16.21;59.02
35202;BME280;20553;47.544;7.586;2022-07-10T22:03:31;98871.22;;;16.01;60.35
35202;BME280;20553;47.544;7.586;2022-07-10T22:08:36;98875.59;;;15.78;61.33
35202;BME280;20553;47.544;7.586;2022-07-10T22:13:40;98878.19;;;15.53;62.17
35202;BME280;20553;47.544;7.586;2022-07-10T22:18:47;98868.06;;;15.31;63.35
35202;BME280;20553;47.544;7.586;2022-07-10T22:23:51;98878.44;;;15.25;64.02
35202;BME280;20553;47.544;7.586;2022-07-10T22:28:56;98878.44;;;15.25;64.37
35202;BME280;20553;47.544;7.586;2022-07-10T22:34:01;98866.63;;;15.13;65.15
35202;BME280;20553;47.544;7.586;2022-07-10T22:39:06;98873.88;;;15.12;65.75
35202;BME280;20553;47.544;7.586;2022-07-10T22:44:10;98873.13;;;15.10;65.93
35202;BME280;20553;47.544;7.586;2022-07-10T22:49:16;98883.28;;;15.19;66.30
35202;BME280;20553;47.544;7.586;2022-07-10T22:54:21;98878.00;;;15.18;65.67
35202;BME280;20553;47.544;7.586;2022-07-10T22:59:25;98865.88;;;14.98;67.50
35202;BME280;20553;47.544;7.586;2022-07-10T23:04:31;98865.66;;;15.01;67.37
35202;BME280;20553;47.544;7.586;2022-07-10T23:09:36;98869.78;;;15.19;66.90
35202;BME280;20553;47.544;7.586;2022-07-10T23:14:41;98860.91;;;15.04;67.74
35202;BME280;20553;47.544;7.586;2022-07-10T23:19:47;98870.22;;;15.00;68.35
35202;BME280;20553;47.544;7.586;2022-07-10T23:24:51;98869.84;;;14.79;69.53
35202;BME280;20553;47.544;7.586;2022-07-10T23:29:59;98872.44;;;14.54;70.72
35202;BME280;20553;47.544;7.586;2022-07-10T23:35:05;98874.09;;;14.29;72.11
35202;BME280;20553;47.544;7.586;2022-07-10T23:40:10;98872.22;;;14.17;73.06
35202;BME280;20553;47.544;7.586;2022-07-10T23:45:15;98874.75;;;14.05;73.74
35202;BME280;20553;47.544;7.586;2022-07-10T23:50:22;98881.28;;;14.01;74.76
35202;BME280;20553;47.544;7.586;2022-07-10T23:55:29;98873.72;;;13.93;75.27
